sensor_id;sensor_type;location;lat;lon;timestamp;P1;durP1;ratioP1;P2;durP2;ratioP2
19149;SDS011;9707;49.158;8.632;2023-11-18T00:01:19;5.07;;;4.30;;
19149;SDS011;9707;49.158;8.632;2023-11-18T00:03:44;3.67;;;3.15;;
19149;SDS011;9707;49.158;8.632;2023-11-18T00:06:10;6.45;;;4.97;;
19149;SDS011;9707;49.158;8.632;2023-11-18T00:08:35;5.10;;;4.43;;
19149;SDS011;9707;49.158;8.632;2023-11-18T00:11:01;5.10;;;4.60;;
19149;SDS011;9707;49.158;8.632;2023-11-18T00:13:26;5.38;;;4.25;;
19149;SDS011;9707;49.158;8.632;2023-11-18T00:15:52;5.65;;;5.00;;
19149;SDS011;9707;49.158;8.632;2023-11-18T00:18:17;5.53;;;4.55;;
19149;SDS011;9707;49.158;8.632;2023-11-18T00:20:43;5.45;;;4.95;;
19149;SDS011;9707;49.158;8.632;2023-11-18T00:23:09;6.18;;;4.75;;
19149;SDS011;9707;49.158;8.632;2023-11-18T00:25:34;5.50;;;4.85;;
19149;SDS011;9707;49.158;8.632;2023-11-18T00:28:01;4.68;;;4.10;;
19149;SDS011;9707;49.158;8.632;2023-11-18T00:30:26;5.40;;;4.88;;
19149;SDS011;9707;49.158;8.632;2023-11-18T00:32:53;5.13;;;4.63;;
19149;SDS011;9707;49.158;8.632;2023-11-18T00:35:18;7.43;;;4.28;;
19149;SDS011;9707;49.158;8.632;2023-11-18T00:37:44;5.00;;;4.30;;
19149;SDS011;9707;49.158;8.632;2023-11-18T00:40:12;5.43;;;4.70;;
19149;SDS011;9707;49.158;8.632;2023-11-18T00:42:37;5.20;;;4.68;;
19149;SDS011;9707;49.158;8.632;2023-11-18T00:45:03;6.15;;;4.85;;
19149;SDS011;9707;49.158;8.632;2023-11-18T00:47:29;5.28;;;4.78;;
19149;SDS011;9707;49.158;8.632;2023-11-18T00:49:54;9.15;;;4.93;;
19149;SDS011;9707;49.158;8.632;2023-11-18T00:52:20;4.75;;;4.25;;
19149;SDS011;9707;49.158;8.632;2023-11-18T00:54:45;5.57;;;4.15;;
19149;SDS011;9707;49.158;8.632;2023-11-18T00:57:11;5.25;;;4.72;;
19149;SDS011;9707;49.158;8.632;2023-11-18T00:59:36;5.18;;;4.60;;
19149;SDS011;9707;49.158;8.632;2023-11-18T01:02:01;4.90;;;4.45;;
19149;SDS011;9707;49.158;8.632;2023-11-18T01:04:28;5.47;;;4.88;;
19149;SDS011;9707;49.158;8.632;2023-11-18T01:06:53;5.22;;;4.53;;
19149;SDS011;9707;49.158;8.632;2023-11-18T01:09:19;5.50;;;4.50;;
19149;SDS011;9707;49.158;8.632;2023-11-18T01:11:44;6.65;;;4.15;;
19149;SDS011;9707;49.158;8.632;2023-11-18T01:14:09;6.82;;;4.70;;
19149;SDS011;9707;49.158;8.632;2023-11-18T01:16:35;7.75;;;4.90;;
19149;SDS011;9707;49.158;8.632;2023-11-18T01:19:00;5.97;;;4.90;;
19149;SDS011;9707;49.158;8.632;2023-11-18T01:21:25;5.57;;;5.07;;
19149;SDS011;9707;49.158;8.632;2023-11-18T01:23:52;5.57;;;5.07;;
19149;SDS011;9707;49.158;8.632;2023-11-18T01:26:17;5.90;;;4.95;;
19149;SDS011;9707;49.158;8.632;2023-11-18T01:28:42;9.00;;;5.70;;
19149;SDS011;9707;49.158;8.632;2023-11-18T01:31:10;6.20;;;5.20;;
19149;SDS011;9707;49.158;8.632;2023-11-18T01:33:39;5.93;;;5.30;;
19149;SDS011;9707;49.158;8.632;2023-11-18T01:36:05;5.57;;;4.82;;
19149;SDS011;9707;49.158;8.632;2023-11-18T01:38:33;6.53;;;5.55;;
19149;SDS011;9707;49.158;8.632;2023-11-18T01:40:58;6.45;;;5.47;;
19149;SDS011;9707;49.158;8.632;2023-11-18T01:43:25;6.65;;;5.95;;
19149;SDS011;9707;49.158;8.632;2023-11-18T01:45:51;5.85;;;5.25;;
19149;SDS011;9707;49.158;8.632;2023-11-18T01:48:18;6.55;;;5.60;;
19149;SDS011;9707;49.158;8.632;2023-11-18T01:50:44;6.10;;;5.05;;
19149;SDS011;9707;49.158;8.632;2023-11-18T01:53:10;5.85;;;5.25;;
19149;SDS011;9707;49.158;8.632;2023-11-18T01:55:36;6.45;;;5.68;;
19149;SDS011;9707;49.158;8.632;2023-11-18T01:58:03;7.45;;;5.68;;
19149;SDS011;9707;49.158;8.632;2023-11-18T02:00:36;6.68;;;5.60;;
19149;SDS011;9707;49.158;8.632;2023-11-18T02:03:03;6.88;;;6.18;;
19149;SDS011;9707;49.158;8.632;2023-11-18T02:05:30;7.25;;;5.60;;
19149;SDS011;9707;49.158;8.632;2023-11-18T02:07:57;6.47;;;5.20;;
19149;SDS011;9707;49.158;8.632;2023-11-18T02:10:25;10.75;;;6.30;;
19149;SDS011;9707;49.158;8.632;2023-11-18T02:13:07;6.88;;;5.70;;
19149;SDS011;9707;49.158;8.632;2023-11-18T02:15:37;9.02;;;5.82;;
19149;SDS011;9707;49.158;8.632;2023-11-18T02:18:05;6.30;;;5.63;;
19149;SDS011;9707;49.158;8.632;2023-11-18T02:20:34;8.63;;;6.22;;
19149;SDS011;9707;49.158;8.632;2023-11-18T02:23:00;7.22;;;5.88;;
19149;SDS011;9707;49.158;8.632;2023-11-18T02:25:27;10.20;;;6.50;;
19149;SDS011;9707;49.158;8.632;2023-11-18T02:27:55;9.20;;;5.95;;
19149;SDS011;9707;49.158;8.632;2023-11-18T02:30:20;6.75;;;5.90;;
19149;SDS011;9707;49.158;8.632;2023-11-18T02:32:50;7.70;;;6.00;;
19149;SDS011;9707;49.158;8.632;2023-11-18T02:35:24;7.35;;;5.93;;
19149;SDS011;9707;49.158;8.632;2023-11-18T02:37:53;8.20;;;6.40;;
19149;SDS011;9707;49.158;8.632;2023-11-18T02:40:20;6.93;;;6.22;;
19149;SDS011;9707;49.158;8.632;2023-11-18T02:42:51;11.43;;;6.28;;
19149;SDS011;9707;49.158;8.632;2023-11-18T02:45:18;7.13;;;5.95;;
19149;SDS011;9707;49.158;8.632;2023-11-18T02:47:44;7.05;;;5.53;;
19149;SDS011;9707;49.158;8.632;2023-11-18T02:50:10;8.02;;;5.78;;
19149;SDS011;9707;49.158;8.632;2023-11-18T02:52:39;8.95;;;5.97;;
19149;SDS011;9707;49.158;8.632;2023-11-18T02:55:05;9.13;;;6.07;;
19149;SDS011;9707;49.158;8.632;2023-11-18T02:57:37;7.65;;;5.93;;
19149;SDS011;9707;49.158;8.632;2023-11-18T03:00:06;6.05;;;5.00;;
19149;SDS011;9707;49.158;8.632;2023-11-18T03:02:41;9.93;;;5.78;;
19149;SDS011;9707;49.158;8.632;2023-11-18T03:05:07;7.20;;;5.70;;
19149;SDS011;9707;49.158;8.632;2023-11-18T03:07:32;8.80;;;6.30;;
19149;SDS011;9707;49.158;8.632;2023-11-18T03:09:58;8.18;;;5.72;;
19149;SDS011;9707;49.158;8.632;2023-11-18T03:12:24;7.78;;;5.88;;
19149;SDS011;9707;49.158;8.632;2023-11-18T03:14:52;7.35;;;5.47;;
19149;SDS011;9707;49.158;8.632;2023-11-18T03:17:18;6.72;;;5.40;;
19149;SDS011;9707;49.158;8.632;2023-11-18T03:19:45;5.50;;;4.95;;
19149;SDS011;9707;49.158;8.632;2023-11-18T03:22:10;8.38;;;6.10;;
19149;SDS011;9707;49.158;8.632;2023-11-18T03:24:37;6.50;;;5.28;;
19149;SDS011;9707;49.158;8.632;2023-11-18T03:27:03;8.40;;;6.07;;
19149;SDS011;9707;49.158;8.632;2023-11-18T03:29:28;10.02;;;5.25;;
19149;SDS011;9707;49.158;8.632;2023-11-18T03:31:54;6.30;;;5.70;;
19149;SDS011;9707;49.158;8.632;2023-11-18T03:34:19;7.70;;;5.80;;
19149;SDS011;9707;49.158;8.632;2023-11-18T03:36:45;9.77;;;5.75;;
19149;SDS011;9707;49.158;8.632;2023-11-18T03:39:12;6.32;;;5.38;;
19149;SDS011;9707;49.158;8.632;2023-11-18T03:41:37;6.05;;;5.38;;
19149;SDS011;9707;49.158;8.632;2023-11-18T03:44:03;7.93;;;5.80;;
19149;SDS011;9707;49.158;8.632;2023-11-18T03:46:29;7.00;;;5.70;;
19149;SDS011;9707;49.158;8.632;2023-11-18T03:48:56;9.38;;;5.85;;
19149;SDS011;9707;49.158;8.632;2023-11-18T03:51:21;7.50;;;5.45;;
19149;SDS011;9707;49.158;8.632;2023-11-18T03:53:46;7.97;;;5.50;;
19149;SDS011;9707;49.158;8.632;2023-11-18T03:56:16;6.68;;;5.10;;
19149;SDS011;9707;49.158;8.632;2023-11-18T03:58:43;10.45;;;6.03;;
19149;SDS011;9707;49.158;8.632;2023-11-18T04:01:08;6.55;;;4.97;;
19149;SDS011;9707;49.158;8.632;2023-11-18T04:03:36;8.15;;;5.50;;
19149;SDS011;9707;49.158;8.632;2023-11-18T04:06:01;7.32;;;5.38;;
19149;SDS011;9707;49.158;8.632;2023-11-18T04:08:28;6.20;;;5.60;;
19149;SDS011;9707;49.158;8.632;2023-11-18T04:10:53;7.90;;;6.35;;
19149;SDS011;9707;49.158;8.632;2023-11-18T04:13:19;6.50;;;5.60;;
19149;SDS011;9707;49.158;8.632;2023-11-18T04:15:44;6.72;;;6.05;;
19149;SDS011;9707;49.158;8.632;2023-11-18T04:18:10;7.35;;;6.10;;
19149;SDS011;9707;49.158;8.632;2023-11-18T04:20:35;6.18;;;4.90;;
19149;SDS011;9707;49.158;8.632;2023-11-18T04:23:01;7.28;;;4.93;;
19149;SDS011;9707;49.158;8.632;2023-11-18T04:25:27;7.40;;;4.47;;
19149;SDS011;9707;49.158;8.632;2023-11-18T04:27:52;5.78;;;4.88;;
19149;SDS011;9707;49.158;8.632;2023-11-18T04:30:18;7.40;;;5.88;;
19149;SDS011;9707;49.158;8.632;2023-11-18T04:32:43;8.75;;;5.50;;
19149;SDS011;9707;49.158;8.632;2023-11-18T04:35:08;6.32;;;5.53;;
19149;SDS011;9707;49.158;8.632;2023-11-18T04:37:35;7.25;;;5.63;;
19149;SDS011;9707;49.158;8.632;2023-11-18T04:40:03;6.25;;;5.65;;
19149;SDS011;9707;49.158;8.632;2023-11-18T04:42:31;7.53;;;5.40;;
19149;SDS011;9707;49.158;8.632;2023-11-18T04:44:57;9.70;;;5.85;;
19149;SDS011;9707;49.158;8.632;2023-11-18T04:47:22;6.55;;;5.60;;
19149;SDS011;9707;49.158;8.632;2023-11-18T04:49:50;8.20;;;5.75;;
19149;SDS011;9707;49.158;8.632;2023-11-18T04:52:15;8.45;;;5.20;;
19149;SDS011;9707;49.158;8.632;2023-11-18T04:54:40;7.13;;;5.50;;
19149;SDS011;9707;49.158;8.632;2023-11-18T04:57:06;7.80;;;5.65;;
19149;SDS011;9707;49.158;8.632;2023-11-18T04:59:33;5.88;;;5.28;;
19149;SDS011;9707;49.158;8.632;2023-11-18T05:01:59;6.95;;;5.93;;
19149;SDS011;9707;49.158;8.632;2023-11-18T05:04:27;8.48;;;5.70;;
19149;SDS011;9707;49.158;8.632;2023-11-18T05:06:52;7.80;;;6.32;;
19149;SDS011;9707;49.158;8.632;2023-11-18T05:09:17;6.63;;;5.95;;
19149;SDS011;9707;49.158;8.632;2023-11-18T05:11:43;5.88;;;5.28;;
19149;SDS011;9707;49.158;8.632;2023-11-18T05:14:09;9.52;;;5.53;;
19149;SDS011;9707;49.158;8.632;2023-11-18T05:16:36;6.93;;;5.05;;
19149;SDS011;9707;49.158;8.632;2023-11-18T05:19:01;6.40;;;5.47;;
19149;SDS011;9707;49.158;8.632;2023-11-18T05:21:26;6.30;;;5.07;;
19149;SDS011;9707;49.158;8.632;2023-11-18T05:23:51;21.15;;;14.43;;
19149;SDS011;9707;49.158;8.632;2023-11-18T05:26:17;7.03;;;5.13;;
19149;SDS011;9707;49.158;8.632;2023-11-18T05:28:43;7.47;;;5.00;;
19149;SDS011;9707;49.158;8.632;2023-11-18T05:31:10;6.10;;;5.03;;
19149;SDS011;9707;49.158;8.632;2023-11-18T05:33:35;6.40;;;5.13;;
19149;SDS011;9707;49.158;8.632;2023-11-18T05:36:01;7.70;;;6.07;;
19149;SDS011;9707;49.158;8.632;2023-11-18T05:38:29;6.90;;;5.63;;
19149;SDS011;9707;49.158;8.632;2023-11-18T05:40:59;6.85;;;5.03;;
19149;SDS011;9707;49.158;8.632;2023-11-18T05:43:27;7.00;;;5.43;;
19149;SDS011;9707;49.158;8.632;2023-11-18T05:46:06;6.18;;;5.20;;
19149;SDS011;9707;49.158;8.632;2023-11-18T05:48:41;8.23;;;6.18;;
19149;SDS011;9707;49.158;8.632;2023-11-18T05:51:07;9.73;;;6.80;;
19149;SDS011;9707;49.158;8.632;2023-11-18T05:53:33;8.32;;;6.43;;
19149;SDS011;9707;49.158;8.632;2023-11-18T05:55:58;9.95;;;6.78;;
19149;SDS011;9707;49.158;8.632;2023-11-18T05:58:23;8.40;;;6.75;;
19149;SDS011;9707;49.158;8.632;2023-11-18T06:00:48;7.20;;;5.95;;
19149;SDS011;9707;49.158;8.632;2023-11-18T06:03:14;11.40;;;6.85;;
19149;SDS011;9707;49.158;8.632;2023-11-18T06:05:40;12.00;;;7.97;;
19149;SDS011;9707;49.158;8.632;2023-11-18T06:08:05;9.43;;;6.90;;
19149;SDS011;9707;49.158;8.632;2023-11-18T06:10:32;9.57;;;6.78;;
19149;SDS011;9707;49.158;8.632;2023-11-18T06:12:59;8.32;;;6.60;;
19149;SDS011;9707;49.158;8.632;2023-11-18T06:15:24;10.88;;;6.85;;
19149;SDS011;9707;49.158;8.632;2023-11-18T06:17:49;8.68;;;6.38;;
19149;SDS011;9707;49.158;8.632;2023-11-18T06:20:15;9.88;;;7.45;;
19149;SDS011;9707;49.158;8.632;2023-11-18T06:22:42;10.63;;;7.20;;
19149;SDS011;9707;49.158;8.632;2023-11-18T06:25:07;9.45;;;7.32;;
19149;SDS011;9707;49.158;8.632;2023-11-18T06:27:33;8.20;;;6.75;;
19149;SDS011;9707;49.158;8.632;2023-11-18T06:29:59;9.63;;;7.25;;
19149;SDS011;9707;49.158;8.632;2023-11-18T06:32:24;9.02;;;7.05;;
19149;SDS011;9707;49.158;8.632;2023-11-18T06:34:52;10.15;;;7.20;;
19149;SDS011;9707;49.158;8.632;2023-11-18T06:37:18;8.40;;;7.22;;
19149;SDS011;9707;49.158;8.632;2023-11-18T06:39:44;9.75;;;7.10;;
19149;SDS011;9707;49.158;8.632;2023-11-18T06:42:12;10.07;;;7.95;;
19149;SDS011;9707;49.158;8.632;2023-11-18T06:44:39;8.07;;;6.80;;
19149;SDS011;9707;49.158;8.632;2023-11-18T06:47:04;8.98;;;6.95;;
19149;SDS011;9707;49.158;8.632;2023-11-18T06:49:31;7.47;;;6.07;;
19149;SDS011;9707;49.158;8.632;2023-11-18T06:51:59;7.40;;;6.30;;
19149;SDS011;9707;49.158;8.632;2023-11-18T06:54:29;8.98;;;5.82;;
19149;SDS011;9707;49.158;8.632;2023-11-18T06:56:55;7.93;;;6.15;;
19149;SDS011;9707;49.158;8.632;2023-11-18T06:59:21;8.98;;;6.78;;
19149;SDS011;9707;49.158;8.632;2023-11-18T07:01:46;6.88;;;6.18;;
19149;SDS011;9707;49.158;8.632;2023-11-18T07:04:11;7.00;;;6.32;;
19149;SDS011;9707;49.158;8.632;2023-11-18T07:06:37;7.32;;;6.40;;
19149;SDS011;9707;49.158;8.632;2023-11-18T07:09:06;7.35;;;5.88;;
19149;SDS011;9707;49.158;8.632;2023-11-18T07:11:42;7.30;;;6.00;;
19149;SDS011;9707;49.158;8.632;2023-11-18T07:14:08;8.43;;;6.65;;
19149;SDS011;9707;49.158;8.632;2023-11-18T07:16:34;7.60;;;6.80;;
19149;SDS011;9707;49.158;8.632;2023-11-18T07:19:00;7.88;;;7.07;;
19149;SDS011;9707;49.158;8.632;2023-11-18T07:21:25;7.57;;;6.68;;
19149;SDS011;9707;49.158;8.632;2023-11-18T07:23:51;8.32;;;6.57;;
19149;SDS011;9707;49.158;8.632;2023-11-18T07:26:16;9.90;;;6.63;;
19149;SDS011;9707;49.158;8.632;2023-11-18T07:28:41;8.73;;;7.22;;
19149;SDS011;9707;49.158;8.632;2023-11-18T07:31:08;9.00;;;6.40;;
19149;SDS011;9707;49.158;8.632;2023-11-18T07:33:34;7.82;;;6.88;;
19149;SDS011;9707;49.158;8.632;2023-11-18T07:35:59;5.57;;;5.07;;
19149;SDS011;9707;49.158;8.632;2023-11-18T07:38:25;7.78;;;5.55;;
19149;SDS011;9707;49.158;8.632;2023-11-18T07:40:52;7.85;;;6.70;;
19149;SDS011;9707;49.158;8.632;2023-11-18T07:43:21;25.00;;;7.07;;
19149;SDS011;9707;49.158;8.632;2023-11-18T07:45:46;13.15;;;4.43;;
19149;SDS011;9707;49.158;8.632;2023-11-18T07:48:14;10.55;;;5.72;;
19149;SDS011;9707;49.158;8.632;2023-11-18T07:50:42;9.18;;;5.60;;
19149;SDS011;9707;49.158;8.632;2023-11-18T07:53:09;5.50;;;4.50;;
19149;SDS011;9707;49.158;8.632;2023-11-18T07:55:36;5.07;;;4.57;;
19149;SDS011;9707;49.158;8.632;2023-11-18T07:58:04;5.20;;;4.43;;
19149;SDS011;9707;49.158;8.632;2023-11-18T08:00:36;5.10;;;4.60;;
19149;SDS011;9707;49.158;8.632;2023-11-18T08:03:03;7.28;;;3.17;;
19149;SDS011;9707;49.158;8.632;2023-11-18T08:05:30;5.90;;;5.13;;
19149;SDS011;9707;49.158;8.632;2023-11-18T08:07:56;6.93;;;5.65;;
19149;SDS011;9707;49.158;8.632;2023-11-18T08:10:21;7.95;;;5.70;;
19149;SDS011;9707;49.158;8.632;2023-11-18T08:12:47;6.05;;;4.78;;
19149;SDS011;9707;49.158;8.632;2023-11-18T08:15:13;4.60;;;4.20;;
19149;SDS011;9707;49.158;8.632;2023-11-18T08:17:38;6.05;;;4.45;;
19149;SDS011;9707;49.158;8.632;2023-11-18T08:20:04;5.40;;;4.47;;
19149;SDS011;9707;49.158;8.632;2023-11-18T08:22:39;6.25;;;3.90;;
19149;SDS011;9707;49.158;8.632;2023-11-18T08:25:09;4.32;;;3.92;;
19149;SDS011;9707;49.158;8.632;2023-11-18T08:27:39;3.75;;;3.03;;
19149;SDS011;9707;49.158;8.632;2023-11-18T08:30:06;5.40;;;4.18;;
19149;SDS011;9707;49.158;8.632;2023-11-18T08:32:36;4.25;;;3.30;;
19149;SDS011;9707;49.158;8.632;2023-11-18T08:35:05;4.07;;;3.67;;
19149;SDS011;9707;49.158;8.632;2023-11-18T08:37:33;8.57;;;5.82;;
19149;SDS011;9707;49.158;8.632;2023-11-18T08:40:00;4.57;;;4.10;;
19149;SDS011;9707;49.158;8.632;2023-11-18T08:42:31;3.58;;;3.13;;
19149;SDS011;9707;49.158;8.632;2023-11-18T08:44:57;6.53;;;3.45;;
19149;SDS011;9707;49.158;8.632;2023-11-18T08:47:24;5.65;;;4.88;;
19149;SDS011;9707;49.158;8.632;2023-11-18T08:49:49;3.13;;;2.80;;
19149;SDS011;9707;49.158;8.632;2023-11-18T08:52:14;3.70;;;3.40;;
19149;SDS011;9707;49.158;8.632;2023-11-18T08:54:43;4.82;;;3.92;;
19149;SDS011;9707;49.158;8.632;2023-11-18T08:57:27;5.95;;;3.40;;
19149;SDS011;9707;49.158;8.632;2023-11-18T08:59:59;3.03;;;2.58;;
19149;SDS011;9707;49.158;8.632;2023-11-18T09:02:24;6.47;;;4.20;;
19149;SDS011;9707;49.158;8.632;2023-11-18T09:04:50;3.22;;;2.60;;
19149;SDS011;9707;49.158;8.632;2023-11-18T09:07:15;4.32;;;2.67;;
19149;SDS011;9707;49.158;8.632;2023-11-18T09:09:41;3.45;;;3.08;;
19149;SDS011;9707;49.158;8.632;2023-11-18T09:12:06;4.32;;;2.78;;
19149;SDS011;9707;49.158;8.632;2023-11-18T09:14:33;3.03;;;2.42;;
19149;SDS011;9707;49.158;8.632;2023-11-18T09:16:59;3.35;;;3.05;;
19149;SDS011;9707;49.158;8.632;2023-11-18T09:19:27;2.83;;;2.35;;
19149;SDS011;9707;49.158;8.632;2023-11-18T09:21:52;4.30;;;2.20;;
19149;SDS011;9707;49.158;8.632;2023-11-18T09:24:19;2.40;;;1.83;;
19149;SDS011;9707;49.158;8.632;2023-11-18T09:26:45;3.38;;;2.55;;
19149;SDS011;9707;49.158;8.632;2023-11-18T09:29:13;3.95;;;2.50;;
19149;SDS011;9707;49.158;8.632;2023-11-18T09:31:42;2.63;;;2.10;;
19149;SDS011;9707;49.158;8.632;2023-11-18T09:34:08;5.60;;;2.35;;
19149;SDS011;9707;49.158;8.632;2023-11-18T09:36:40;3.60;;;2.10;;
19149;SDS011;9707;49.158;8.632;2023-11-18T09:39:08;2.85;;;1.45;;
19149;SDS011;9707;49.158;8.632;2023-11-18T09:41:34;3.88;;;2.53;;
19149;SDS011;9707;49.158;8.632;2023-11-18T09:44:00;2.45;;;1.60;;
19149;SDS011;9707;49.158;8.632;2023-11-18T09:46:27;3.03;;;2.00;;
19149;SDS011;9707;49.158;8.632;2023-11-18T09:51:50;2.35;;;2.05;;
19149;SDS011;9707;49.158;8.632;2023-11-18T09:54:25;2.78;;;1.85;;
19149;SDS011;9707;49.158;8.632;2023-11-18T09:59:49;5.13;;;2.40;;
19149;SDS011;9707;49.158;8.632;2023-11-18T10:02:24;2.97;;;2.10;;
19149;SDS011;9707;49.158;8.632;2023-11-18T10:04:50;3.10;;;1.85;;
19149;SDS011;9707;49.158;8.632;2023-11-18T10:07:22;3.38;;;3.00;;
19149;SDS011;9707;49.158;8.632;2023-11-18T10:09:51;1.98;;;1.85;;
19149;SDS011;9707;49.158;8.632;2023-11-18T10:12:22;2.67;;;1.67;;
19149;SDS011;9707;49.158;8.632;2023-11-18T10:14:49;4.65;;;2.00;;
19149;SDS011;9707;49.158;8.632;2023-11-18T10:17:17;2.42;;;1.80;;
19149;SDS011;9707;49.158;8.632;2023-11-18T10:19:52;2.55;;;1.33;;
19149;SDS011;9707;49.158;8.632;2023-11-18T10:22:22;4.35;;;2.33;;
19149;SDS011;9707;49.158;8.632;2023-11-18T10:24:49;3.42;;;1.83;;
19149;SDS011;9707;49.158;8.632;2023-11-18T10:27:14;3.08;;;2.35;;
19149;SDS011;9707;49.158;8.632;2023-11-18T10:29:40;3.85;;;2.42;;
19149;SDS011;9707;49.158;8.632;2023-11-18T10:32:06;4.78;;;2.20;;
19149;SDS011;9707;49.158;8.632;2023-11-18T10:34:41;4.30;;;2.70;;
19149;SDS011;9707;49.158;8.632;2023-11-18T10:37:08;4.50;;;1.77;;
19149;SDS011;9707;49.158;8.632;2023-11-18T10:39:35;2.38;;;1.90;;
19149;SDS011;9707;49.158;8.632;2023-11-18T10:42:01;5.30;;;2.40;;
19149;SDS011;9707;49.158;8.632;2023-11-18T10:44:27;1.67;;;1.58;;
19149;SDS011;9707;49.158;8.632;2023-11-18T10:46:54;1.65;;;1.30;;
19149;SDS011;9707;49.158;8.632;2023-11-18T10:49:23;2.05;;;1.40;;
19149;SDS011;9707;49.158;8.632;2023-11-18T10:51:50;2.22;;;1.73;;
19149;SDS011;9707;49.158;8.632;2023-11-18T10:54:16;3.03;;;1.50;;
19149;SDS011;9707;49.158;8.632;2023-11-18T10:56:50;3.05;;;1.65;;
19149;SDS011;9707;49.158;8.632;2023-11-18T10:59:21;2.55;;;1.75;;
19149;SDS011;9707;49.158;8.632;2023-11-18T11:01:47;2.22;;;1.30;;
19149;SDS011;9707;49.158;8.632;2023-11-18T11:04:14;2.72;;;1.50;;
19149;SDS011;9707;49.158;8.632;2023-11-18T11:06:45;3.63;;;1.85;;
19149;SDS011;9707;49.158;8.632;2023-11-18T11:09:17;2.60;;;1.60;;
19149;SDS011;9707;49.158;8.632;2023-11-18T11:11:47;2.05;;;1.38;;
19149;SDS011;9707;49.158;8.632;2023-11-18T11:14:16;3.35;;;1.52;;
19149;SDS011;9707;49.158;8.632;2023-11-18T11:16:44;3.17;;;1.50;;
19149;SDS011;9707;49.158;8.632;2023-11-18T11:19:25;1.25;;;1.00;;
19149;SDS011;9707;49.158;8.632;2023-11-18T11:22:07;2.67;;;1.40;;
19149;SDS011;9707;49.158;8.632;2023-11-18T11:27:25;2.78;;;1.10;;
19149;SDS011;9707;49.158;8.632;2023-11-18T11:30:17;3.55;;;1.20;;
19149;SDS011;9707;49.158;8.632;2023-11-18T11:35:23;2.30;;;1.13;;
19149;SDS011;9707;49.158;8.632;2023-11-18T11:37:56;2.75;;;1.10;;
19149;SDS011;9707;49.158;8.632;2023-11-18T11:40:27;2.42;;;1.25;;
19149;SDS011;9707;49.158;8.632;2023-11-18T11:42:54;2.45;;;1.48;;
19149;SDS011;9707;49.158;8.632;2023-11-18T11:45:23;4.35;;;1.23;;
19149;SDS011;9707;49.158;8.632;2023-11-18T11:47:54;2.65;;;1.50;;
19149;SDS011;9707;49.158;8.632;2023-11-18T11:50:50;2.35;;;1.48;;
19149;SDS011;9707;49.158;8.632;2023-11-18T11:53:32;2.13;;;1.20;;
19149;SDS011;9707;49.158;8.632;2023-11-18T11:56:01;4.75;;;1.00;;
19149;SDS011;9707;49.158;8.632;2023-11-18T11:58:31;2.17;;;0.98;;
19149;SDS011;9707;49.158;8.632;2023-11-18T12:01:18;2.22;;;0.93;;
19149;SDS011;9707;49.158;8.632;2023-11-18T12:04:10;2.85;;;1.35;;
19149;SDS011;9707;49.158;8.632;2023-11-18T12:06:46;4.70;;;1.40;;
19149;SDS011;9707;49.158;8.632;2023-11-18T12:09:13;4.65;;;2.20;;
19149;SDS011;9707;49.158;8.632;2023-11-18T12:11:44;2.85;;;1.42;;
19149;SDS011;9707;49.158;8.632;2023-11-18T12:14:14;2.80;;;1.60;;
19149;SDS011;9707;49.158;8.632;2023-11-18T12:16:58;4.20;;;1.48;;
19149;SDS011;9707;49.158;8.632;2023-11-18T12:19:34;4.93;;;2.10;;
19149;SDS011;9707;49.158;8.632;2023-11-18T12:22:19;2.08;;;1.30;;
19149;SDS011;9707;49.158;8.632;2023-11-18T12:30:51;3.40;;;1.85;;
19149;SDS011;9707;49.158;8.632;2023-11-18T12:33:01;6.35;;;1.58;;
19149;SDS011;9707;49.158;8.632;2023-11-18T12:35:37;1.98;;;1.08;;
19149;SDS011;9707;49.158;8.632;2023-11-18T12:41:05;4.45;;;1.70;;
19149;SDS011;9707;49.158;8.632;2023-11-18T12:49:18;3.85;;;1.85;;
19149;SDS011;9707;49.158;8.632;2023-11-18T12:51:51;2.00;;;1.58;;
19149;SDS011;9707;49.158;8.632;2023-11-18T12:54:18;6.93;;;2.33;;
19149;SDS011;9707;49.158;8.632;2023-11-18T12:56:45;1.70;;;1.20;;
19149;SDS011;9707;49.158;8.632;2023-11-18T12:59:15;1.67;;;1.27;;
19149;SDS011;9707;49.158;8.632;2023-11-18T13:01:43;2.13;;;1.42;;
19149;SDS011;9707;49.158;8.632;2023-11-18T13:04:16;2.17;;;1.40;;
19149;SDS011;9707;49.158;8.632;2023-11-18T13:06:42;1.92;;;1.30;;
19149;SDS011;9707;49.158;8.632;2023-11-18T13:09:07;1.65;;;1.30;;
19149;SDS011;9707;49.158;8.632;2023-11-18T13:11:35;4.40;;;1.45;;
19149;SDS011;9707;49.158;8.632;2023-11-18T13:14:00;1.77;;;1.15;;
19149;SDS011;9707;49.158;8.632;2023-11-18T13:16:27;2.47;;;1.48;;
19149;SDS011;9707;49.158;8.632;2023-11-18T13:18:53;4.93;;;1.35;;
19149;SDS011;9707;49.158;8.632;2023-11-18T13:21:20;3.42;;;1.63;;
19149;SDS011;9707;49.158;8.632;2023-11-18T13:23:52;3.47;;;2.20;;
19149;SDS011;9707;49.158;8.632;2023-11-18T13:26:18;6.00;;;2.40;;
19149;SDS011;9707;49.158;8.632;2023-11-18T13:28:45;4.28;;;1.90;;
19149;SDS011;9707;49.158;8.632;2023-11-18T13:31:11;3.85;;;2.20;;
19149;SDS011;9707;49.158;8.632;2023-11-18T13:33:41;2.33;;;1.50;;
19149;SDS011;9707;49.158;8.632;2023-11-18T13:36:12;2.20;;;1.45;;
19149;SDS011;9707;49.158;8.632;2023-11-18T13:38:38;5.03;;;2.70;;
19149;SDS011;9707;49.158;8.632;2023-11-18T13:41:04;4.63;;;2.05;;
19149;SDS011;9707;49.158;8.632;2023-11-18T13:43:45;2.50;;;1.55;;
19149;SDS011;9707;49.158;8.632;2023-11-18T13:46:18;2.83;;;1.42;;
19149;SDS011;9707;49.158;8.632;2023-11-18T13:48:49;3.88;;;1.58;;
19149;SDS011;9707;49.158;8.632;2023-11-18T13:51:15;1.70;;;1.05;;
19149;SDS011;9707;49.158;8.632;2023-11-18T13:53:41;3.20;;;1.58;;
19149;SDS011;9707;49.158;8.632;2023-11-18T13:56:09;1.58;;;0.90;;
19149;SDS011;9707;49.158;8.632;2023-11-18T13:58:35;3.20;;;1.40;;
19149;SDS011;9707;49.158;8.632;2023-11-18T14:01:06;2.50;;;1.15;;
19149;SDS011;9707;49.158;8.632;2023-11-18T14:03:34;1.10;;;0.88;;
19149;SDS011;9707;49.158;8.632;2023-11-18T14:06:01;4.40;;;1.13;;
19149;SDS011;9707;49.158;8.632;2023-11-18T14:08:28;3.20;;;1.45;;
19149;SDS011;9707;49.158;8.632;2023-11-18T14:10:54;1.83;;;0.98;;
19149;SDS011;9707;49.158;8.632;2023-11-18T14:13:20;1.70;;;1.10;;
19149;SDS011;9707;49.158;8.632;2023-11-18T14:15:47;1.67;;;1.38;;
19149;SDS011;9707;49.158;8.632;2023-11-18T14:18:13;3.15;;;1.27;;
19149;SDS011;9707;49.158;8.632;2023-11-18T14:20:39;1.95;;;1.05;;
19149;SDS011;9707;49.158;8.632;2023-11-18T14:23:04;2.00;;;1.30;;
19149;SDS011;9707;49.158;8.632;2023-11-18T14:25:30;2.30;;;1.63;;
19149;SDS011;9707;49.158;8.632;2023-11-18T14:27:55;3.15;;;1.30;;
19149;SDS011;9707;49.158;8.632;2023-11-18T14:30:21;3.08;;;1.48;;
19149;SDS011;9707;49.158;8.632;2023-11-18T14:32:49;2.22;;;1.50;;
19149;SDS011;9707;49.158;8.632;2023-11-18T14:35:15;2.92;;;1.50;;
19149;SDS011;9707;49.158;8.632;2023-11-18T14:37:42;1.55;;;1.10;;
19149;SDS011;9707;49.158;8.632;2023-11-18T14:40:14;3.85;;;2.20;;
19149;SDS011;9707;49.158;8.632;2023-11-18T14:42:49;6.25;;;2.30;;
19149;SDS011;9707;49.158;8.632;2023-11-18T14:45:16;19.10;;;9.25;;
19149;SDS011;9707;49.158;8.632;2023-11-18T14:47:42;17.40;;;9.35;;
19149;SDS011;9707;49.158;8.632;2023-11-18T14:50:22;4.93;;;3.03;;
19149;SDS011;9707;49.158;8.632;2023-11-18T14:52:49;4.57;;;2.88;;
19149;SDS011;9707;49.158;8.632;2023-11-18T14:55:28;2.28;;;1.58;;
19149;SDS011;9707;49.158;8.632;2023-11-18T14:57:54;4.05;;;2.20;;
19149;SDS011;9707;49.158;8.632;2023-11-18T15:00:22;4.60;;;3.67;;
19149;SDS011;9707;49.158;8.632;2023-11-18T15:02:50;5.75;;;5.05;;
19149;SDS011;9707;49.158;8.632;2023-11-18T15:05:16;15.68;;;12.38;;
19149;SDS011;9707;49.158;8.632;2023-11-18T15:07:46;10.15;;;9.10;;
19149;SDS011;9707;49.158;8.632;2023-11-18T15:10:20;7.05;;;5.85;;
19149;SDS011;9707;49.158;8.632;2023-11-18T15:12:48;5.90;;;4.00;;
19149;SDS011;9707;49.158;8.632;2023-11-18T15:15:14;3.42;;;3.08;;
19149;SDS011;9707;49.158;8.632;2023-11-18T15:17:46;3.55;;;2.40;;
19149;SDS011;9707;49.158;8.632;2023-11-18T15:20:13;3.17;;;2.30;;
19149;SDS011;9707;49.158;8.632;2023-11-18T15:22:39;6.97;;;4.45;;
19149;SDS011;9707;49.158;8.632;2023-11-18T15:25:07;8.10;;;5.07;;
19149;SDS011;9707;49.158;8.632;2023-11-18T15:27:36;4.20;;;3.00;;
19149;SDS011;9707;49.158;8.632;2023-11-18T15:30:03;5.28;;;3.42;;